Sears, Michigan
Current Conditions -  °F | °C
As of 2:34 AM on Saturday 29 Nov 2014 (Local Time) from KRQB Reporting Station
Overcast Overcast  
Wind Chill: 20°   Ceiling: 1900
Heat Index: 26°   Visibility: 7mi
Dew Point: 25°   Wind: 6mph
Humidity: 94%   Direction: 150°SSE
Pressure: 29.91"   Gusts: NA
Location:  43.9°N, 85.18°W
Report Text: KRQB 290734Z AUTO 15005KT 7SM OVC019 M03/M04 A2991 RMK AO2 T10311039
Loading
Personal Weather Stations






























Interactive Weather Map New forecast layout! Learn more

10-Day Weather Forecast

Advertisements
Track Severe Weather on mobile